createdAt,value
2022-11-05T00:01:59.313Z,7.80
2022-11-05T00:04:44.923Z,7.80
2022-11-05T00:07:33.595Z,7.80
2022-11-05T00:10:07.972Z,7.80
2022-11-05T00:12:53.651Z,7.80
2022-11-05T00:15:39.226Z,7.80
2022-11-05T00:18:07.509Z,7.80
2022-11-05T00:20:35.862Z,7.80
2022-11-05T00:23:22.842Z,7.80
2022-11-05T00:26:00.704Z,7.80
2022-11-05T00:28:30.391Z,7.80
2022-11-05T00:31:02.935Z,7.80
2022-11-05T00:33:31.699Z,7.70
2022-11-05T00:36:00.336Z,7.70
2022-11-05T00:38:30.480Z,7.70
2022-11-05T00:41:00.239Z,7.80
2022-11-05T00:43:46.352Z,7.80
2022-11-05T00:46:14.639Z,7.80
2022-11-05T00:49:00.387Z,7.80
2022-11-05T00:51:28.667Z,7.80
2022-11-05T00:53:56.995Z,7.80
2022-11-05T00:56:26.704Z,7.80
2022-11-05T00:58:56.434Z,7.80
2022-11-05T01:01:24.888Z,7.80
2022-11-05T01:03:53.141Z,7.90
2022-11-05T01:06:22.355Z,7.90
2022-11-05T01:08:50.935Z,7.90
2022-11-05T01:14:17.639Z,7.90
2022-11-05T01:16:46.211Z,8.00
2022-11-05T01:19:14.519Z,8.00
2022-11-05T01:21:42.757Z,8.00
2022-11-05T01:24:26.051Z,8.00
2022-11-05T01:26:54.287Z,8.00
2022-11-05T01:29:23.924Z,8.00
2022-11-05T01:31:52.279Z,8.00
2022-11-05T01:34:20.515Z,8.00
2022-11-05T01:36:49.277Z,8.00
2022-11-05T01:39:17.666Z,8.10
2022-11-05T01:41:46.142Z,8.10
2022-11-05T01:44:48.093Z,8.10
2022-11-05T01:47:26.767Z,8.10
2022-11-05T01:49:55.704Z,8.10
2022-11-05T01:52:24.887Z,8.10
2022-11-05T01:54:53.676Z,8.20
2022-11-05T01:57:22.385Z,8.10
2022-11-05T01:59:55.066Z,8.10
2022-11-05T02:02:25.520Z,8.10
2022-11-05T02:04:59.180Z,8.10
2022-11-05T02:07:29.203Z,8.10
2022-11-05T02:10:03.476Z,8.20
2022-11-05T02:12:34.099Z,8.10
2022-11-05T02:15:02.433Z,8.20
2022-11-05T02:17:43.319Z,8.20
2022-11-05T02:20:34.273Z,8.20
2022-11-05T02:23:27.307Z,8.20
2022-11-05T02:26:20.587Z,8.20
2022-11-05T02:29:13.440Z,8.20
2022-11-05T02:31:48.971Z,8.20
2022-11-05T02:34:25.718Z,8.20
2022-11-05T02:37:01.529Z,8.20
2022-11-05T02:39:42.672Z,8.20
2022-11-05T02:42:17.614Z,8.20
2022-11-05T02:44:53.078Z,8.20
2022-11-05T02:47:41.041Z,8.30
2022-11-05T02:50:17.983Z,8.30
2022-11-05T02:52:55.396Z,8.30
2022-11-05T02:55:30.558Z,8.30
2022-11-05T02:57:59.723Z,8.30
2022-11-05T03:00:45.844Z,8.30
2022-11-05T03:03:28.602Z,8.30
2022-11-05T03:06:24.367Z,8.30
2022-11-05T03:09:13.648Z,8.40
2022-11-05T03:11:54.122Z,8.40
2022-11-05T03:14:25.990Z,8.40
2022-11-05T03:17:00.833Z,8.40
2022-11-05T03:19:38.684Z,8.40
2022-11-05T03:22:12.326Z,8.40
2022-11-05T03:24:46.203Z,8.40
2022-11-05T03:27:19.640Z,8.40
2022-11-05T03:29:51.870Z,8.40
2022-11-05T03:32:22.434Z,8.40
2022-11-05T03:34:57.763Z,8.40
2022-11-05T03:37:29.770Z,8.40
2022-11-05T03:40:02.044Z,8.40
2022-11-05T03:42:35.773Z,8.40
2022-11-05T03:45:10.559Z,8.50
2022-11-05T03:47:43.636Z,8.50
2022-11-05T03:50:20.386Z,8.50
2022-11-05T03:52:53.584Z,8.50
2022-11-05T03:55:27.328Z,8.50
2022-11-05T03:57:57.016Z,8.50
2022-11-05T04:00:25.408Z,8.50
2022-11-05T04:02:53.729Z,8.60
2022-11-05T04:05:23.497Z,8.60
2022-11-05T04:08:14.047Z,8.60
2022-11-05T04:11:02.152Z,8.60
2022-11-05T04:13:30.701Z,8.50
2022-11-05T04:16:16.681Z,8.60
2022-11-05T04:18:45.064Z,8.60
2022-11-05T04:21:31.998Z,8.60
2022-11-05T04:24:12.831Z,8.60
2022-11-05T04:26:43.662Z,8.60
2022-11-05T04:29:29.907Z,8.60
2022-11-05T04:31:58.822Z,8.60
2022-11-05T04:34:27.695Z,8.60
2022-11-05T04:36:57.670Z,8.60
2022-11-05T04:39:26.265Z,8.60
2022-11-05T04:41:54.823Z,8.60
2022-11-05T04:44:23.234Z,8.60
2022-11-05T04:46:51.491Z,8.60
2022-11-05T04:49:19.802Z,8.60
2022-11-05T04:51:48.205Z,8.60
2022-11-05T04:54:18.141Z,8.60
2022-11-05T04:56:46.620Z,8.60
2022-11-05T04:59:15.177Z,8.60
2022-11-05T05:01:43.756Z,8.70
2022-11-05T05:04:12.096Z,8.60
2022-11-05T05:06:40.432Z,8.70
2022-11-05T05:09:08.735Z,8.70
2022-11-05T05:11:38.573Z,8.70
2022-11-05T05:14:06.983Z,8.70
2022-11-05T05:16:35.498Z,8.70
2022-11-05T05:19:04.011Z,8.80
2022-11-05T05:21:41.068Z,8.80
2022-11-05T05:24:13.524Z,8.80
2022-11-05T05:26:45.183Z,8.80
2022-11-05T05:29:14.528Z,8.80
2022-11-05T05:31:43.173Z,8.80
2022-11-05T05:34:13.387Z,8.80
2022-11-05T05:36:42.202Z,8.80
2022-11-05T05:39:11.451Z,8.90
2022-11-05T05:42:04.242Z,8.90
2022-11-05T05:44:32.799Z,8.90
2022-11-05T05:47:02.325Z,8.90
2022-11-05T05:49:33.452Z,8.90
2022-11-05T05:52:02.048Z,9.00
2022-11-05T05:54:35.010Z,8.90
2022-11-05T05:57:07.365Z,9.00
2022-11-05T05:59:36.101Z,9.00
2022-11-05T06:02:05.912Z,9.00
2022-11-05T06:04:37.834Z,9.00
2022-11-05T06:07:06.814Z,9.00
2022-11-05T06:09:54.497Z,9.10
2022-11-05T06:12:33.995Z,9.10
2022-11-05T06:15:03.142Z,9.10
2022-11-05T06:17:32.069Z,9.10
2022-11-05T06:20:03.364Z,9.10
2022-11-05T06:22:31.928Z,9.10
2022-11-05T06:25:01.760Z,9.10
2022-11-05T06:27:32.071Z,9.10
2022-11-05T06:30:00.891Z,9.10
2022-11-05T06:32:30.759Z,9.10
2022-11-05T06:34:59.837Z,9.10
2022-11-05T06:37:29.405Z,9.10
2022-11-05T06:39:58.439Z,9.10
2022-11-05T06:42:27.259Z,9.10
2022-11-05T06:44:58.432Z,9.10
2022-11-05T22:30:42.755Z,12.60
2022-11-05T22:33:11.601Z,12.60
2022-11-05T22:35:41.120Z,12.60
2022-11-05T22:38:09.738Z,12.70
2022-11-05T22:40:39.382Z,12.70
2022-11-05T22:43:07.651Z,12.70
2022-11-05T22:45:36.415Z,12.70
2022-11-05T22:48:08.066Z,12.70
2022-11-05T22:50:36.763Z,12.70
2022-11-05T22:53:05.621Z,12.70
2022-11-05T22:55:34.537Z,12.80
2022-11-05T22:58:03.326Z,12.80
2022-11-05T23:00:36.708Z,12.80
2022-11-05T23:03:07.773Z,12.90
2022-11-05T23:05:37.068Z,12.90
2022-11-05T23:08:22.930Z,12.90
2022-11-05T23:11:23.456Z,13.00
2022-11-05T23:13:51.977Z,13.00
2022-11-05T23:16:37.497Z,13.00
2022-11-05T23:19:25.032Z,13.10
2022-11-05T23:22:10.660Z,13.10
2022-11-05T23:24:40.132Z,13.10
2022-11-05T23:27:08.603Z,13.10
2022-11-05T23:29:37.287Z,13.20
2022-11-05T23:32:23.053Z,13.10
2022-11-05T23:34:53.638Z,13.20
2022-11-05T23:37:40.511Z,13.20
2022-11-05T23:40:12.249Z,13.20
2022-11-05T23:42:58.288Z,13.20
2022-11-05T23:45:46.851Z,13.20
2022-11-05T23:48:18.756Z,13.30
2022-11-05T23:50:52.688Z,13.30
2022-11-05T23:53:21.431Z,13.30
2022-11-05T23:55:50.561Z,13.30
2022-11-05T23:58:19.582Z,13.40
